createdAt,value
2022-12-03T00:00:44.945Z,42.53
2022-12-03T00:04:46.472Z,33.90
2022-12-03T00:08:48.067Z,34.63
2022-12-03T00:12:49.758Z,37.03
2022-12-03T00:16:51.656Z,39.90
2022-12-03T00:20:53.221Z,36.65
2022-12-03T00:24:55.004Z,36.45
2022-12-03T00:28:57.730Z,39.40
2022-12-03T00:32:59.248Z,33.05
2022-12-03T00:37:00.828Z,34.05
2022-12-03T00:41:02.443Z,35.65
2022-12-03T00:45:04.524Z,36.95
2022-12-03T00:49:06.280Z,36.50
2022-12-03T00:53:10.879Z,38.42
2022-12-03T00:57:12.671Z,39.55
2022-12-03T01:01:15.532Z,37.58
2022-12-03T01:05:18.210Z,42.28
2022-12-03T01:09:19.790Z,38.05
2022-12-03T01:13:21.476Z,38.53
2022-12-03T01:17:23.053Z,38.45
2022-12-03T01:21:24.669Z,36.75
2022-12-03T01:25:26.257Z,33.13
2022-12-03T01:29:27.978Z,38.58
2022-12-03T01:33:29.543Z,35.00
2022-12-03T01:37:31.392Z,36.45
2022-12-03T01:41:34.819Z,37.92
2022-12-03T01:45:36.422Z,37.90
2022-12-03T01:49:44.213Z,31.45
2022-12-03T01:53:46.616Z,32.88
2022-12-03T01:57:51.616Z,36.95
2022-12-03T02:01:53.585Z,32.90
2022-12-03T02:05:56.793Z,40.75
2022-12-03T02:10:02.616Z,35.50
2022-12-03T02:14:08.377Z,30.65
2022-12-03T02:18:10.280Z,33.33
2022-12-03T02:22:51.434Z,42.08
2022-12-03T02:26:53.073Z,37.33
2022-12-03T02:30:54.622Z,32.05
2022-12-03T02:34:56.681Z,32.25
2022-12-03T02:38:58.701Z,35.25
2022-12-03T02:43:03.764Z,32.13
2022-12-03T02:47:05.409Z,36.78
2022-12-03T02:51:10.607Z,34.33
2022-12-03T02:55:13.924Z,34.40
2022-12-03T02:59:15.708Z,36.90
2022-12-03T03:03:18.784Z,33.45
2022-12-03T03:07:20.336Z,39.00
2022-12-03T03:11:21.908Z,41.20
2022-12-03T03:15:24.705Z,34.47
2022-12-03T03:19:26.914Z,41.67
2022-12-03T03:23:28.576Z,37.92
2022-12-03T03:27:30.533Z,41.45
2022-12-03T03:31:32.123Z,38.20
2022-12-03T03:35:33.974Z,36.67
2022-12-03T03:39:35.799Z,34.03
2022-12-03T03:43:39.076Z,36.25
2022-12-03T03:47:41.600Z,37.20
2022-12-03T03:51:43.508Z,36.22
2022-12-03T03:55:45.715Z,37.05
2022-12-03T03:59:47.207Z,39.10
2022-12-03T04:03:48.821Z,33.45
2022-12-03T04:07:50.687Z,31.60
2022-12-03T04:12:10.693Z,35.50
2022-12-03T04:16:12.811Z,37.20
2022-12-03T04:20:14.623Z,34.17
2022-12-03T04:24:16.286Z,31.95
2022-12-03T04:28:36.623Z,28.75
2022-12-03T04:32:56.465Z,33.60
2022-12-03T04:36:58.142Z,33.42
2022-12-03T04:41:04.243Z,29.85
2022-12-03T04:45:06.702Z,34.17
2022-12-03T04:49:08.323Z,35.28
2022-12-03T04:53:09.826Z,38.13
2022-12-03T04:57:12.208Z,31.70
2022-12-03T05:01:13.900Z,32.20
2022-12-03T05:05:24.832Z,35.45
2022-12-03T05:09:26.441Z,32.08
2022-12-03T05:13:28.287Z,37.45
2022-12-03T05:17:29.808Z,33.33
2022-12-03T05:21:31.595Z,31.85
2022-12-03T05:25:33.317Z,38.10
2022-12-03T05:29:34.823Z,30.83
2022-12-03T05:33:40.832Z,32.13
2022-12-03T05:37:45.474Z,36.20
2022-12-03T05:42:05.736Z,33.35
2022-12-03T05:46:07.261Z,31.58
2022-12-03T05:50:09.156Z,30.13
2022-12-03T05:54:10.620Z,30.60
2022-12-03T05:58:12.295Z,31.60
2022-12-03T06:02:14.023Z,34.97
2022-12-03T06:06:15.607Z,34.78
2022-12-03T06:10:20.454Z,34.40
2022-12-03T06:14:21.939Z,33.97
2022-12-03T06:18:23.561Z,31.05
2022-12-03T06:22:25.166Z,32.88
2022-12-03T06:26:26.669Z,33.40
2022-12-03T06:30:28.276Z,30.48
2022-12-03T06:34:30.071Z,32.72
2022-12-03T06:38:31.566Z,32.70
2022-12-03T06:42:33.119Z,32.67
2022-12-03T06:46:34.775Z,30.30
2022-12-03T06:50:36.397Z,33.65
2022-12-03T06:54:38.034Z,35.33
2022-12-03T06:58:39.743Z,35.63
2022-12-03T07:02:41.456Z,34.75
2022-12-03T07:06:43.683Z,32.55
2022-12-03T07:10:45.359Z,34.70
2022-12-03T07:14:49.222Z,32.85
2022-12-03T07:18:50.809Z,30.48
2022-12-03T07:22:52.352Z,32.25
2022-12-03T07:26:53.982Z,35.90
2022-12-03T07:30:55.645Z,32.22
2022-12-03T07:34:57.481Z,32.35
2022-12-03T07:38:59.105Z,31.55
2022-12-03T07:43:00.883Z,30.90
2022-12-03T07:47:02.802Z,30.42
2022-12-03T07:51:04.608Z,31.05
2022-12-03T07:55:06.702Z,31.58
2022-12-03T07:59:08.440Z,28.27
2022-12-03T08:03:10.131Z,29.80
2022-12-03T08:07:11.862Z,31.08
2022-12-03T08:11:16.865Z,28.27
2022-12-03T08:15:21.305Z,31.40
2022-12-03T08:19:22.893Z,27.55
2022-12-03T08:23:25.422Z,32.92
2022-12-03T08:27:26.998Z,34.00
2022-12-03T08:31:33.694Z,29.92
2022-12-03T08:35:49.785Z,32.85
2022-12-03T08:39:54.642Z,31.50
2022-12-03T08:43:57.537Z,36.40
2022-12-03T08:48:14.757Z,30.52
2022-12-03T08:52:22.695Z,32.45
2022-12-03T08:56:27.592Z,35.47
2022-12-03T09:00:29.206Z,32.88
2022-12-03T09:04:46.102Z,32.22
2022-12-03T09:08:49.960Z,35.40
2022-12-03T09:12:53.875Z,34.35
2022-12-03T09:16:56.549Z,36.20
2022-12-03T09:20:58.394Z,31.80
2022-12-03T09:25:00.148Z,32.33
2022-12-03T09:29:01.987Z,36.50
2022-12-03T09:33:03.658Z,33.95
2022-12-03T09:37:05.198Z,33.50
2022-12-03T09:41:08.785Z,37.00
2022-12-03T09:45:14.259Z,35.72
2022-12-03T09:49:19.031Z,36.67
2022-12-03T09:53:28.508Z,35.75
2022-12-03T09:57:31.097Z,34.55
2022-12-03T10:01:32.760Z,33.40
2022-12-03T10:05:36.760Z,39.85
2022-12-03T10:09:38.499Z,38.92
2022-12-03T10:13:40.735Z,32.05
2022-12-03T10:17:43.205Z,31.15
2022-12-03T10:21:44.718Z,33.78
2022-12-03T10:25:59.456Z,36.92
2022-12-03T10:30:14.006Z,33.88
2022-12-03T10:34:24.397Z,32.25
2022-12-03T10:38:26.580Z,41.95
2022-12-03T10:42:40.309Z,39.53
2022-12-03T10:46:42.136Z,39.40
2022-12-03T10:51:10.315Z,46.60
2022-12-03T10:55:15.940Z,37.78
2022-12-03T10:59:25.596Z,33.28
2022-12-03T11:03:37.512Z,36.10
2022-12-03T11:07:39.733Z,36.28
2022-12-03T11:11:41.382Z,35.83
2022-12-03T11:15:44.969Z,38.90
2022-12-03T11:19:48.652Z,39.00
2022-12-03T11:23:50.125Z,36.35
2022-12-03T11:28:10.492Z,38.65
2022-12-03T11:32:38.402Z,39.55
2022-12-03T11:37:12.766Z,39.53
2022-12-03T11:41:22.566Z,34.35
2022-12-03T11:45:36.731Z,36.58
2022-12-03T11:49:49.354Z,34.90
2022-12-03T11:53:53.942Z,39.03
2022-12-03T11:58:01.753Z,35.65
2022-12-03T12:02:19.933Z,39.10
2022-12-03T12:06:21.778Z,36.58
2022-12-03T12:10:43.519Z,43.50
2022-12-03T12:14:47.037Z,39.13
2022-12-03T12:18:55.159Z,34.80
2022-12-03T12:23:21.977Z,32.03
2022-12-03T12:27:37.922Z,38.75
2022-12-03T12:31:39.576Z,31.83
2022-12-03T12:35:41.493Z,34.38
2022-12-03T12:39:43.097Z,30.75
2022-12-03T12:43:44.856Z,38.15
2022-12-03T12:47:48.903Z,37.38
2022-12-03T12:51:50.826Z,35.55
2022-12-03T12:56:01.349Z,37.35
2022-12-03T13:00:05.002Z,37.72
2022-12-03T13:04:21.605Z,33.53
2022-12-03T13:08:25.298Z,34.13
2022-12-03T13:12:27.096Z,30.88
2022-12-03T13:16:32.925Z,31.08
2022-12-03T13:20:34.950Z,31.48
2022-12-03T13:24:38.554Z,32.15
2022-12-03T13:28:41.437Z,28.85
2022-12-03T13:32:43.625Z,30.17
2022-12-03T13:36:52.038Z,31.92
2022-12-03T13:41:02.293Z,31.60
2022-12-03T13:45:19.575Z,29.92
2022-12-03T13:49:23.181Z,31.98
2022-12-03T13:53:28.661Z,29.17
2022-12-03T13:57:30.332Z,30.45
2022-12-03T14:01:32.198Z,28.30
2022-12-03T14:05:33.814Z,29.55
2022-12-03T14:09:35.398Z,22.50
2022-12-03T14:13:37.051Z,21.15
2022-12-03T14:17:38.878Z,22.73
2022-12-03T14:21:40.583Z,19.38
2022-12-03T14:25:43.881Z,19.23
2022-12-03T14:29:45.697Z,20.20
2022-12-03T14:33:47.747Z,17.25
2022-12-03T14:37:49.367Z,19.50
2022-12-03T14:42:09.545Z,20.00
2022-12-03T14:46:11.343Z,21.65
2022-12-03T14:50:14.279Z,22.38
2022-12-03T14:54:16.266Z,20.00
2022-12-03T14:58:17.835Z,26.67
2022-12-03T15:02:19.631Z,29.02
2022-12-03T15:06:21.177Z,27.88
2022-12-03T15:10:22.883Z,28.33
2022-12-03T15:14:27.252Z,34.53
2022-12-03T15:18:30.856Z,36.80
2022-12-03T15:22:36.498Z,34.45
2022-12-03T15:26:47.283Z,38.78
2022-12-03T15:30:51.998Z,33.90
2022-12-03T15:34:53.549Z,37.33
2022-12-03T15:38:57.247Z,42.75
2022-12-03T15:42:59.032Z,41.42
2022-12-03T15:47:00.587Z,38.05
2022-12-03T15:51:02.056Z,44.28
2022-12-03T15:55:04.167Z,35.17
2022-12-03T15:59:08.895Z,42.28
2022-12-03T16:03:11.290Z,39.70
2022-12-03T16:07:14.020Z,38.08
2022-12-03T16:11:15.964Z,41.05
2022-12-03T16:15:38.683Z,37.53
2022-12-03T16:19:40.301Z,39.78
2022-12-03T16:23:41.756Z,43.10
2022-12-03T16:27:43.556Z,46.08
2022-12-03T16:31:45.898Z,42.15
2022-12-03T16:35:47.511Z,48.90
2022-12-03T16:39:53.330Z,39.50
2022-12-03T16:43:55.393Z,44.88
2022-12-03T16:47:57.363Z,44.83
2022-12-03T16:51:59.306Z,39.97
2022-12-03T16:56:05.621Z,43.85
2022-12-03T17:00:08.370Z,41.97
2022-12-03T17:04:09.896Z,46.67
2022-12-03T17:08:11.861Z,44.75
2022-12-03T17:12:13.710Z,46.45
2022-12-03T17:16:15.436Z,44.78
2022-12-03T17:20:17.932Z,48.28
2022-12-03T17:24:22.112Z,45.45
2022-12-03T17:28:23.759Z,47.10
2022-12-03T17:32:25.566Z,50.03
2022-12-03T17:36:28.489Z,43.88
2022-12-03T17:40:30.059Z,47.03
2022-12-03T17:44:31.657Z,43.60
2022-12-03T17:48:33.444Z,46.00
2022-12-03T17:52:34.995Z,45.20
2022-12-03T17:56:36.840Z,46.67
2022-12-03T18:00:41.621Z,43.65
2022-12-03T18:04:43.120Z,37.70
2022-12-03T18:08:44.830Z,41.63
2022-12-03T18:12:46.678Z,39.80
2022-12-03T18:16:48.433Z,39.20
2022-12-03T18:20:50.207Z,41.67
2022-12-03T18:24:52.218Z,37.17
2022-12-03T18:28:53.876Z,41.30
2022-12-03T18:32:55.596Z,42.95
2022-12-03T18:36:57.345Z,40.28
2022-12-03T18:40:59.729Z,39.92
2022-12-03T18:45:01.267Z,40.78
2022-12-03T18:49:03.021Z,42.83
2022-12-03T18:53:04.772Z,37.42
2022-12-03T18:57:07.635Z,42.00
2022-12-03T19:01:17.205Z,39.55
2022-12-03T19:05:18.823Z,40.92
2022-12-03T19:09:20.570Z,44.00
2022-12-03T19:13:22.399Z,45.30
2022-12-03T19:17:24.517Z,48.70
2022-12-03T19:21:30.706Z,42.13
2022-12-03T19:25:35.158Z,49.58
2022-12-03T19:29:36.873Z,44.40
2022-12-03T19:33:38.932Z,45.75
2022-12-03T19:37:40.566Z,37.67
2022-12-03T19:41:43.952Z,43.35
2022-12-03T19:45:45.517Z,38.65
2022-12-03T19:49:47.240Z,38.05
2022-12-03T19:53:48.939Z,38.10
2022-12-03T19:57:50.485Z,36.90
2022-12-03T20:01:52.173Z,41.13
2022-12-03T20:05:56.248Z,33.63
2022-12-03T20:09:58.384Z,40.08
2022-12-03T20:14:10.373Z,41.85
2022-12-03T20:18:11.910Z,42.58
2022-12-03T20:22:13.523Z,43.97
2022-12-03T20:26:20.060Z,39.92
2022-12-03T20:34:23.501Z,38.20
2022-12-03T20:38:26.389Z,39.10
2022-12-03T20:42:28.095Z,41.10
2022-12-03T20:46:31.445Z,48.40
2022-12-03T20:50:33.372Z,44.83
2022-12-03T20:54:35.061Z,56.95
2022-12-03T20:58:36.930Z,54.83
2022-12-03T21:02:38.628Z,55.05
2022-12-03T21:06:42.196Z,44.13
2022-12-03T21:10:46.943Z,51.70
2022-12-03T21:14:48.728Z,50.83
2022-12-03T21:18:50.562Z,54.83
2022-12-03T21:22:52.091Z,50.33
2022-12-03T21:26:53.729Z,56.50
2022-12-03T21:31:00.320Z,60.60
2022-12-03T21:35:02.011Z,54.78
2022-12-03T21:39:05.032Z,53.17
2022-12-03T21:43:06.689Z,58.58
2022-12-03T21:47:13.962Z,47.58
2022-12-03T21:51:17.651Z,51.53
2022-12-03T21:55:21.910Z,51.72
2022-12-03T21:59:23.598Z,57.25
2022-12-03T22:03:25.338Z,53.00
2022-12-03T22:07:27.046Z,53.17
2022-12-03T22:11:28.741Z,49.80
2022-12-03T22:15:31.412Z,53.50
2022-12-03T22:19:32.948Z,49.55
2022-12-03T22:23:34.762Z,53.25
2022-12-03T22:27:36.650Z,49.15
2022-12-03T22:31:38.571Z,52.53
2022-12-03T22:35:40.053Z,47.28
2022-12-03T22:39:41.621Z,50.33
2022-12-03T22:43:43.242Z,54.65
2022-12-03T22:47:44.775Z,49.10
2022-12-03T22:51:47.222Z,51.60
2022-12-03T22:55:55.555Z,51.95
2022-12-03T22:59:57.422Z,47.92
2022-12-03T23:04:00.313Z,48.30
2022-12-03T23:08:02.027Z,53.10
2022-12-03T23:12:04.162Z,53.35
2022-12-03T23:16:06.700Z,52.47
2022-12-03T23:20:09.038Z,57.03
2022-12-03T23:24:13.191Z,53.45
2022-12-03T23:28:14.797Z,54.65
2022-12-03T23:32:16.447Z,50.53
2022-12-03T23:36:18.626Z,53.13
2022-12-03T23:40:20.314Z,50.88
2022-12-03T23:44:22.092Z,46.45
2022-12-03T23:48:23.949Z,52.45
2022-12-03T23:52:25.608Z,47.78
2022-12-03T23:56:29.722Z,53.05
